Time;durP1;ratioP1;P1;durP2;ratioP2;P2;SDS_P1;SDS_P2;PMS_P1;PMS_P2;Temp;Humidity;BMP_temperature;BMP_pressure;BME280_temperature;BME280_humidity;BME280_pressure;Samples;Min_cycle;Max_cycle;Signal;HPM_P1;HPM_P2
2022/03/06 00:01:05;;;;;;;;;;;5.30;60.20;;;;;;2595043;53;20051;-75
2022/03/06 00:03:32;;;;;;;;;;;5.30;60.30;;;;;;2347590;57;20070;-75
2022/03/06 00:05:58;;;;;;;;;;;5.30;60.40;;;;;;2348198;57;20130;-75
2022/03/06 00:08:25;;;;;;;;;;;5.30;60.40;;;;;;2347686;57;20090;-75
2022/03/06 00:10:51;;;;;;;;;;;5.30;60.40;;;;;;2347706;57;20409;-75
2022/03/06 00:13:17;;;;;;;;;;;5.30;60.20;;;;;;2348456;57;20059;-75
2022/03/06 00:15:44;;;;;;;;;;;5.30;60.30;;;;;;2347706;57;20063;-75
2022/03/06 00:18:10;;;;;;;;;;;5.30;60.40;;;;;;2348416;57;20189;-75
2022/03/06 00:20:37;;;;;;;;;;;5.30;60.30;;;;;;2348092;57;20385;-75
2022/03/06 00:23:03;;;;;;;;;;;5.30;60.20;;;;;;2348323;57;20070;-75
2022/03/06 00:25:30;;;;;;;;;;;5.30;60.20;;;;;;2348187;57;20365;-75
2022/03/06 00:27:56;;;;;;;;;;;5.30;60.40;;;;;;2595474;53;20119;-75
2022/03/06 00:30:23;;;;;;;;;;;5.30;60.40;;;;;;2348007;57;20083;-75
2022/03/06 00:32:50;;;;;;;;;;;5.30;60.50;;;;;;2348479;57;20130;-74
2022/03/06 00:35:16;;;;;;;;;;;5.30;60.30;;;;;;2348016;57;20122;-75
2022/03/06 00:37:43;;;;;;;;;;;5.30;60.30;;;;;;2348408;57;20078;-75
2022/03/06 00:40:11;;;;;;;;;;;5.30;60.40;;;;;;2347913;57;20333;-75
2022/03/06 00:42:37;;;;;;;;;;;5.30;60.40;;;;;;2348284;57;20066;-75
2022/03/06 00:45:04;;;;;;;;;;;5.30;60.60;;;;;;2348165;57;20074;-75
2022/03/06 00:47:31;;;;;;;;;;;5.30;60.70;;;;;;2348001;57;20145;-74
2022/03/06 00:49:57;;;;;;;;;;;5.30;60.80;;;;;;2348008;57;20122;-74
2022/03/06 00:54:53;;;;;;;;;;;5.30;60.70;;;;;;2291633;59;20088;-72
2022/03/06 00:57:19;;;;;;;;;;;5.30;60.90;;;;;;2291446;59;20170;-73
2022/03/06 00:59:46;;;;;;;;;;;5.30;60.80;;;;;;2290927;59;20128;-72
2022/03/06 01:02:12;;;;;;;;;;;5.30;60.80;;;;;;2272823;59;20069;-73
2022/03/06 01:04:39;;;;;;;;;;;5.30;60.80;;;;;;2496026;55;20352;-73
2022/03/06 01:07:06;;;;;;;;;;;5.30;60.60;;;;;;2269177;59;20137;-72
2022/03/06 01:09:32;;;;;;;;;;;5.30;60.60;;;;;;2269580;59;20081;-74
2022/03/06 01:11:59;;;;;;;;;;;5.30;60.70;;;;;;2499550;55;20157;-73
2022/03/06 01:14:25;;;;;;;;;;;5.30;60.80;;;;;;2269724;59;20122;-74
2022/03/06 01:16:52;;;;;;;;;;;5.30;60.70;;;;;;2269041;59;20089;-74
2022/03/06 01:19:19;;;;;;;;;;;5.30;60.60;;;;;;2268064;59;20104;-72
2022/03/06 01:21:46;;;;;;;;;;;5.30;61.50;;;;;;2268198;59;20386;-73
2022/03/06 01:24:12;;;;;;;;;;;5.30;60.60;;;;;;2268755;59;20137;-74
2022/03/06 01:26:39;;;;;;;;;;;5.30;60.60;;;;;;2269002;59;20184;-72
2022/03/06 01:29:05;;;;;;;;;;;5.30;60.60;;;;;;2269252;59;20069;-73
2022/03/06 01:31:32;;;;;;;;;;;5.20;60.60;;;;;;2269204;59;20153;-73
2022/03/06 01:33:59;;;;;;;;;;;5.20;60.50;;;;;;2268901;59;20136;-74
2022/03/06 01:36:25;;;;;;;;;;;5.20;61.30;;;;;;2269274;59;20077;-73
2022/03/06 01:38:51;;;;;;;;;;;5.20;60.60;;;;;;2268672;59;20339;-71
2022/03/06 01:41:18;;;;;;;;;;;5.20;60.70;;;;;;2268886;59;20081;-73
2022/03/06 01:43:44;;;;;;;;;;;5.20;60.80;;;;;;2499664;55;20073;-73
2022/03/06 01:46:12;;;;;;;;;;;5.20;60.70;;;;;;2269262;59;20121;-74
2022/03/06 01:48:38;;;;;;;;;;;5.20;60.80;;;;;;2498991;55;20085;-72
2022/03/06 01:51:05;;;;;;;;;;;5.20;60.90;;;;;;2268690;59;20431;-73
2022/03/06 01:53:31;;;;;;;;;;;5.20;60.80;;;;;;2269376;59;20498;-73
2022/03/06 01:55:58;;;;;;;;;;;5.20;60.80;;;;;;2269278;59;20069;-73
2022/03/06 01:58:24;;;;;;;;;;;5.20;60.80;;;;;;2269481;59;20065;-73
2022/03/06 02:00:51;;;;;;;;;;;5.20;60.70;;;;;;2498918;55;20065;-72
2022/03/06 02:03:18;;;;;;;;;;;5.20;60.50;;;;;;2268935;59;20081;-73
2022/03/06 02:05:45;;;;;;;;;;;5.20;60.50;;;;;;2269123;59;20069;-73
2022/03/06 02:08:11;;;;;;;;;;;5.20;60.60;;;;;;2269080;59;20129;-72
2022/03/06 02:10:38;;;;;;;;;;;5.20;60.50;;;;;;2269017;59;20087;-73
2022/03/06 02:13:05;;;;;;;;;;;5.20;60.70;;;;;;2269176;59;20400;-73
2022/03/06 02:15:32;;;;;;;;;;;5.20;60.80;;;;;;2269429;59;20169;-73
2022/03/06 02:17:58;;;;;;;;;;;5.20;60.90;;;;;;2269543;59;20145;-73
2022/03/06 02:20:25;;;;;;;;;;;5.20;60.90;;;;;;2268319;59;20072;-73
2022/03/06 02:22:53;;;;;;;;;;;5.20;60.70;;;;;;2269027;59;20117;-72
2022/03/06 02:25:21;;;;;;;;;;;5.20;60.70;;;;;;2269496;59;20356;-73
2022/03/06 02:27:49;;;;;;;;;;;5.20;60.70;;;;;;2499419;55;20141;-72
2022/03/06 02:30:16;;;;;;;;;;;5.20;60.70;;;;;;2268947;59;20065;-73
2022/03/06 02:32:44;;;;;;;;;;;5.20;60.80;;;;;;2269486;59;20077;-72
2022/03/06 02:35:10;;;;;;;;;;;5.10;60.70;;;;;;2269109;59;20129;-73
2022/03/06 02:37:37;;;;;;;;;;;5.10;60.90;;;;;;2267338;59;20081;-74
2022/03/06 02:40:06;;;;;;;;;;;5.10;61.10;;;;;;2268995;59;20097;-73
2022/03/06 02:42:33;;;;;;;;;;;5.10;61.20;;;;;;2268921;59;20105;-73
2022/03/06 02:45:00;;;;;;;;;;;5.10;61.10;;;;;;2269141;59;20133;-74
2022/03/06 02:47:27;;;;;;;;;;;5.10;61.10;;;;;;2269294;59;20109;-73
2022/03/06 02:49:54;;;;;;;;;;;5.10;61.10;;;;;;2269256;59;20106;-74
2022/03/06 02:52:21;;;;;;;;;;;5.10;61.30;;;;;;2268442;59;20081;-73
2022/03/06 02:54:47;;;;;;;;;;;5.10;61.40;;;;;;2268187;59;21164;-73
2022/03/06 02:57:14;;;;;;;;;;;5.10;61.50;;;;;;2268467;59;20061;-72
2022/03/06 02:59:40;;;;;;;;;;;5.10;61.50;;;;;;2268787;59;20081;-73
2022/03/06 03:02:07;;;;;;;;;;;5.10;61.50;;;;;;2269287;59;20077;-72
2022/03/06 03:04:34;;;;;;;;;;;5.10;61.40;;;;;;2267979;59;20065;-72
2022/03/06 03:07:00;;;;;;;;;;;5.10;61.10;;;;;;2268620;59;20129;-72
2022/03/06 03:09:27;;;;;;;;;;;5.10;61.90;;;;;;2268626;59;20375;-73
2022/03/06 03:14:31;;;;;;;;;;;5.10;61.30;;;;;;2358727;57;20053;-72
2022/03/06 03:16:58;;;;;;;;;;;5.10;61.20;;;;;;2378380;56;20085;-72
2022/03/06 03:19:24;;;;;;;;;;;5.10;61.40;;;;;;2377301;56;20335;-72
2022/03/06 03:21:51;;;;;;;;;;;5.10;61.20;;;;;;2397567;56;20072;-72
2022/03/06 03:24:17;;;;;;;;;;;5.10;61.20;;;;;;2406694;56;20069;-72
2022/03/06 03:26:44;;;;;;;;;;;5.20;61.40;;;;;;2405796;56;20069;-71
2022/03/06 03:29:10;;;;;;;;;;;5.20;61.20;;;;;;2406329;56;20128;-73
2022/03/06 03:31:37;;;;;;;;;;;5.10;61.30;;;;;;2405684;56;20263;-72
2022/03/06 03:34:03;;;;;;;;;;;5.20;61.50;;;;;;2406060;56;20395;-72
2022/03/06 03:36:30;;;;;;;;;;;5.20;61.40;;;;;;2406409;56;20072;-72
2022/03/06 03:38:56;;;;;;;;;;;5.20;61.40;;;;;;2405882;56;20069;-73
2022/03/06 03:41:23;;;;;;;;;;;5.20;61.30;;;;;;2406063;56;20124;-71
2022/03/06 03:43:49;;;;;;;;;;;5.20;61.30;;;;;;2405620;56;20061;-72
2022/03/06 03:46:16;;;;;;;;;;;5.20;61.50;;;;;;2406438;56;20113;-72
2022/03/06 03:48:42;;;;;;;;;;;5.20;61.40;;;;;;2406338;56;20076;-72
2022/03/06 03:51:09;;;;;;;;;;;5.20;61.30;;;;;;2406176;56;20068;-72
2022/03/06 03:53:35;;;;;;;;;;;5.20;61.40;;;;;;2406002;56;20053;-72
2022/03/06 03:56:04;;;;;;;;;;;5.20;61.40;;;;;;2406417;56;20362;-73
2022/03/06 03:58:31;;;;;;;;;;;5.20;61.40;;;;;;2406233;56;20187;-72
2022/03/06 04:00:57;;;;;;;;;;;5.20;61.40;;;;;;2406023;56;20131;-72
2022/03/06 04:03:24;;;;;;;;;;;5.20;61.30;;;;;;2406482;56;20160;-72
2022/03/06 04:05:50;;;;;;;;;;;5.20;61.40;;;;;;2666719;52;20112;-72
2022/03/06 04:08:17;;;;;;;;;;;5.20;61.30;;;;;;2405745;56;20064;-72
2022/03/06 04:10:44;;;;;;;;;;;5.20;62.30;;;;;;2406040;56;20116;-72
2022/03/06 04:13:10;;;;;;;;;;;5.20;61.40;;;;;;2406153;56;20072;-72
2022/03/06 04:15:37;;;;;;;;;;;5.20;61.40;;;;;;2405819;56;20310;-71
2022/03/06 04:18:04;;;;;;;;;;;5.20;61.40;;;;;;2406347;56;20121;-72
2022/03/06 04:20:31;;;;;;;;;;;5.20;61.50;;;;;;2666744;52;20068;-72
2022/03/06 04:22:58;;;;;;;;;;;5.20;61.40;;;;;;2406682;56;20092;-71
2022/03/06 04:25:24;;;;;;;;;;;5.30;61.40;;;;;;2405763;56;20085;-71
2022/03/06 04:27:51;;;;;;;;;;;5.30;61.50;;;;;;2405565;56;20068;-72
2022/03/06 04:30:17;;;;;;;;;;;5.20;61.30;;;;;;2403114;56;20140;-72
2022/03/06 04:32:44;;;;;;;;;;;5.20;61.30;;;;;;2405043;56;20068;-72
2022/03/06 04:35:11;;;;;;;;;;;5.20;61.40;;;;;;2405538;56;20172;-73
2022/03/06 04:37:37;;;;;;;;;;;5.30;61.50;;;;;;2405442;56;20060;-72
2022/03/06 04:40:04;;;;;;;;;;;5.30;61.50;;;;;;2405496;56;20092;-71
2022/03/06 04:42:31;;;;;;;;;;;5.30;61.70;;;;;;2405519;56;20065;-72
2022/03/06 04:44:57;;;;;;;;;;;5.30;61.50;;;;;;2405243;56;20246;-72
2022/03/06 04:47:24;;;;;;;;;;;5.30;61.60;;;;;;2403449;56;20080;-72
2022/03/06 04:49:50;;;;;;;;;;;5.30;61.50;;;;;;2404491;56;20158;-72
2022/03/06 04:52:17;;;;;;;;;;;5.30;61.40;;;;;;2405356;56;20092;-72
2022/03/06 04:54:43;;;;;;;;;;;5.20;61.30;;;;;;2405284;56;20081;-73
2022/03/06 04:57:10;;;;;;;;;;;5.20;61.20;;;;;;2405538;56;20405;-73
2022/03/06 04:59:36;;;;;;;;;;;5.20;61.90;;;;;;2665210;52;20111;-73
2022/03/06 05:02:03;;;;;;;;;;;5.20;61.20;;;;;;2405391;56;20198;-73
2022/03/06 05:04:30;;;;;;;;;;;5.20;60.90;;;;;;2664096;52;20155;-73
2022/03/06 05:06:56;;;;;;;;;;;5.20;60.80;;;;;;2404704;56;20080;-74
2022/03/06 05:09:23;;;;;;;;;;;5.20;60.80;;;;;;2405223;56;20139;-73
2022/03/06 05:11:49;;;;;;;;;;;5.20;60.90;;;;;;2405641;56;20138;-73
2022/03/06 05:14:16;;;;;;;;;;;5.20;60.90;;;;;;2404975;56;20072;-73
2022/03/06 05:16:43;;;;;;;;;;;5.20;61.00;;;;;;2401279;56;20107;-73
2022/03/06 05:19:09;;;;;;;;;;;5.20;61.20;;;;;;2404928;56;20131;-73
2022/03/06 05:21:36;;;;;;;;;;;5.20;61.20;;;;;;2405659;56;20116;-72
2022/03/06 05:24:03;;;;;;;;;;;5.20;61.20;;;;;;2404822;56;20201;-73
2022/03/06 05:26:30;;;;;;;;;;;5.20;61.20;;;;;;2405693;56;20151;-73
2022/03/06 05:28:56;;;;;;;;;;;5.20;61.20;;;;;;2405076;56;20110;-73
2022/03/06 05:31:23;;;;;;;;;;;5.20;61.10;;;;;;2405793;56;20079;-74
2022/03/06 05:33:49;;;;;;;;;;;5.30;61.30;;;;;;2405043;56;20060;-74
2022/03/06 05:36:17;;;;;;;;;;;5.20;61.20;;;;;;2405536;56;20127;-73
2022/03/06 05:38:44;;;;;;;;;;;5.20;61.20;;;;;;2665144;52;20139;-74
2022/03/06 05:41:10;;;;;;;;;;;5.20;61.30;;;;;;2405219;56;20132;-74
2022/03/06 05:43:37;;;;;;;;;;;5.20;61.20;;;;;;2405429;56;20360;-74
2022/03/06 05:46:03;;;;;;;;;;;5.20;61.20;;;;;;2405628;56;20077;-74
2022/03/06 05:48:30;;;;;;;;;;;5.20;61.10;;;;;;2405825;56;20116;-74
2022/03/06 05:50:56;;;;;;;;;;;5.20;62.00;;;;;;2405333;56;20108;-74
2022/03/06 05:53:23;;;;;;;;;;;5.20;61.40;;;;;;2405477;56;20137;-74
2022/03/06 05:55:49;;;;;;;;;;;5.20;61.40;;;;;;2664694;52;20108;-74
2022/03/06 05:58:16;;;;;;;;;;;5.20;61.30;;;;;;2405837;56;20064;-74
2022/03/06 06:00:42;;;;;;;;;;;5.20;61.20;;;;;;2665364;52;20079;-74
2022/03/06 06:03:09;;;;;;;;;;;5.20;61.20;;;;;;2403458;56;20171;-74
2022/03/06 06:05:35;;;;;;;;;;;5.20;61.20;;;;;;2405620;56;20347;-73
2022/03/06 06:08:02;;;;;;;;;;;5.10;61.10;;;;;;2405629;56;20190;-74
2022/03/06 06:10:28;;;;;;;;;;;5.20;61.40;;;;;;2404933;56;20136;-74
2022/03/06 06:15:30;;;;;;;;;;;5.20;61.60;;;;;;2359386;57;20378;-72
2022/03/06 06:17:57;;;;;;;;;;;5.10;61.50;;;;;;2377364;56;20089;-72
2022/03/06 06:20:24;;;;;;;;;;;5.20;61.60;;;;;;2375192;56;20081;-73
2022/03/06 06:22:53;;;;;;;;;;;5.20;61.50;;;;;;2350653;57;20118;-73
2022/03/06 06:25:19;;;;;;;;;;;5.20;61.50;;;;;;2350757;57;20102;-75
2022/03/06 06:27:46;;;;;;;;;;;5.20;61.10;;;;;;2598426;53;20082;-73
2022/03/06 06:30:13;;;;;;;;;;;5.30;61.80;;;;;;2349385;57;20173;-73
2022/03/06 06:32:40;;;;;;;;;;;5.20;61.60;;;;;;2350889;57;20085;-73
2022/03/06 06:35:07;;;;;;;;;;;5.20;61.80;;;;;;2598394;53;20134;-72
2022/03/06 06:37:34;;;;;;;;;;;5.20;61.60;;;;;;2351127;57;20122;-73
2022/03/06 06:40:00;;;;;;;;;;;5.20;61.70;;;;;;2349742;57;20078;-72
2022/03/06 06:42:27;;;;;;;;;;;5.20;61.30;;;;;;2350414;57;20074;-73
2022/03/06 06:44:54;;;;;;;;;;;5.20;62.00;;;;;;2350459;57;20050;-73
2022/03/06 06:47:20;;;;;;;;;;;5.30;61.20;;;;;;2350002;57;20126;-73
2022/03/06 06:49:47;;;;;;;;;;;5.30;61.30;;;;;;2350352;57;20094;-73
2022/03/06 06:52:14;;;;;;;;;;;5.30;61.30;;;;;;2350985;57;20087;-73
2022/03/06 06:54:40;;;;;;;;;;;5.30;61.30;;;;;;2544770;52;68478;-78
2022/03/06 06:57:07;;;;;;;;;;;5.30;61.20;;;;;;2352067;57;20414;-78
2022/03/06 06:59:33;;;;;;;;;;;5.30;61.00;;;;;;2600711;53;20124;-79
2022/03/06 07:02:01;;;;;;;;;;;5.40;60.90;;;;;;2352043;57;20329;-78
2022/03/06 07:04:27;;;;;;;;;;;5.30;60.50;;;;;;2351520;57;20077;-78
2022/03/06 07:06:53;;;;;;;;;;;5.30;60.40;;;;;;2349822;57;20137;-77
2022/03/06 07:09:20;;;;;;;;;;;5.30;60.20;;;;;;2349410;57;20366;-78
2022/03/06 07:11:46;;;;;;;;;;;5.30;59.80;;;;;;2350019;57;20116;-80
2022/03/06 07:14:13;;;;;;;;;;;5.20;59.80;;;;;;2597603;52;20129;-77
2022/03/06 07:16:39;;;;;;;;;;;5.30;59.90;;;;;;2350867;57;20077;-78
2022/03/06 07:19:05;;;;;;;;;;;5.20;59.80;;;;;;2349564;57;20338;-77
2022/03/06 07:21:32;;;;;;;;;;;5.20;59.60;;;;;;2350273;57;20089;-78
2022/03/06 07:23:58;;;;;;;;;;;5.20;59.60;;;;;;2598318;52;20069;-78
2022/03/06 07:26:25;;;;;;;;;;;5.30;59.60;;;;;;2350427;57;20081;-78
2022/03/06 07:28:51;;;;;;;;;;;5.30;59.50;;;;;;2350075;57;20128;-80
2022/03/06 07:33:53;;;;;;;;;;;5.20;58.50;;;;;;2358583;57;20057;-76
2022/03/06 07:36:19;;;;;;;;;;;5.20;58.00;;;;;;2378031;56;20073;-73
2022/03/06 07:38:46;;;;;;;;;;;5.20;58.10;;;;;;2377373;56;20070;-73
2022/03/06 07:41:13;;;;;;;;;;;5.20;58.10;;;;;;2390760;56;20060;-73
2022/03/06 07:43:40;;;;;;;;;;;5.20;58.40;;;;;;2405612;56;20132;-72
2022/03/06 07:46:06;;;;;;;;;;;5.20;58.30;;;;;;2406295;56;20088;-72
2022/03/06 07:48:33;;;;;;;;;;;5.20;58.50;;;;;;2407245;56;20315;-73
2022/03/06 07:50:59;;;;;;;;;;;5.30;58.10;;;;;;2406470;56;20132;-72
2022/03/06 07:53:25;;;;;;;;;;;5.30;58.00;;;;;;2667969;52;20088;-72
2022/03/06 07:55:52;;;;;;;;;;;5.30;56.70;;;;;;2407173;56;20103;-73
2022/03/06 07:58:18;;;;;;;;;;;5.30;56.80;;;;;;2407049;56;20147;-73
2022/03/06 08:00:45;;;;;;;;;;;5.30;57.20;;;;;;2407182;56;20382;-72
2022/03/06 08:03:12;;;;;;;;;;;5.40;57.70;;;;;;2407416;56;20080;-72
2022/03/06 08:05:38;;;;;;;;;;;5.40;57.80;;;;;;2407555;56;20300;-73
2022/03/06 08:08:05;;;;;;;;;;;5.40;57.40;;;;;;2408078;56;20068;-72
2022/03/06 08:10:32;;;;;;;;;;;5.50;57.10;;;;;;2407417;56;20121;-72
2022/03/06 08:12:58;;;;;;;;;;;5.50;57.20;;;;;;2407197;56;20080;-72
2022/03/06 08:15:26;;;;;;;;;;;5.60;57.50;;;;;;2407518;56;20144;-72
2022/03/06 08:17:52;;;;;;;;;;;5.60;57.20;;;;;;2407365;56;20073;-72
2022/03/06 08:20:19;;;;;;;;;;;5.60;56.80;;;;;;2407184;56;20068;-72
2022/03/06 08:22:45;;;;;;;;;;;5.50;56.50;;;;;;2407555;56;20172;-71
2022/03/06 08:25:12;;;;;;;;;;;5.60;56.00;;;;;;2406787;56;20115;-72
2022/03/06 08:27:38;;;;;;;;;;;5.50;55.70;;;;;;2668068;52;20076;-76
2022/03/06 08:30:06;;;;;;;;;;;5.50;56.00;;;;;;2406942;56;20088;-72
2022/03/06 08:32:33;;;;;;;;;;;5.50;55.30;;;;;;2407137;56;20075;-73
2022/03/06 08:35:00;;;;;;;;;;;5.50;55.60;;;;;;2406086;56;20061;-72
2022/03/06 08:37:26;;;;;;;;;;;5.50;55.90;;;;;;2407918;56;20064;-71
2022/03/06 08:39:53;;;;;;;;;;;5.50;55.80;;;;;;2407944;56;20052;-72
2022/03/06 08:42:19;;;;;;;;;;;5.50;55.90;;;;;;2406906;56;20080;-72
2022/03/06 08:44:46;;;;;;;;;;;5.50;55.60;;;;;;2407466;56;20442;-72
2022/03/06 08:47:12;;;;;;;;;;;5.50;55.50;;;;;;2406323;56;20073;-71
2022/03/06 08:49:39;;;;;;;;;;;5.50;54.90;;;;;;2667239;52;20165;-72
2022/03/06 08:52:06;;;;;;;;;;;5.60;54.90;;;;;;2405383;56;20136;-72
2022/03/06 08:54:32;;;;;;;;;;;5.60;54.60;;;;;;2407108;56;20069;-72
2022/03/06 08:56:59;;;;;;;;;;;5.50;53.20;;;;;;2406279;56;20069;-72
2022/03/06 08:59:25;;;;;;;;;;;5.60;53.30;;;;;;2406542;56;20072;-72
2022/03/06 09:01:55;;;;;;;;;;;5.60;53.60;;;;;;2406727;56;20065;-72
2022/03/06 09:04:23;;;;;;;;;;;5.60;54.10;;;;;;2406951;56;20116;-72
2022/03/06 09:06:49;;;;;;;;;;;5.60;51.70;;;;;;2405705;56;20081;-72
2022/03/06 09:09:16;;;;;;;;;;;5.60;52.00;;;;;;2405718;56;20089;-72
2022/03/06 09:11:45;;;;;;;;;;;5.60;52.30;;;;;;2406491;56;20115;-72
2022/03/06 09:14:11;;;;;;;;;;;5.60;52.70;;;;;;2406947;56;20076;-73
2022/03/06 09:16:38;;;;;;;;;;;5.60;53.20;;;;;;2407014;56;20125;-72
2022/03/06 09:19:04;;;;;;;;;;;5.60;53.30;;;;;;2405680;56;20136;-73
2022/03/06 09:21:30;;;;;;;;;;;5.60;53.00;;;;;;2407062;56;20084;-72
2022/03/06 09:23:57;;;;;;;;;;;5.60;53.10;;;;;;2406526;56;20199;-73
2022/03/06 09:26:25;;;;;;;;;;;5.60;52.20;;;;;;2407317;56;20319;-73
2022/03/06 09:28:52;;;;;;;;;;;5.60;51.40;;;;;;2406439;56;20159;-72
2022/03/06 09:31:18;;;;;;;;;;;5.60;51.60;;;;;;2406413;56;20140;-72
2022/03/06 09:33:45;;;;;;;;;;;5.70;51.50;;;;;;2406098;56;20148;-73
2022/03/06 09:36:11;;;;;;;;;;;5.70;51.40;;;;;;2406528;56;20122;-72
2022/03/06 09:38:38;;;;;;;;;;;5.60;51.10;;;;;;2406749;56;20085;-75
2022/03/06 09:41:04;;;;;;;;;;;5.60;51.40;;;;;;2665625;52;20080;-73
2022/03/06 09:43:32;;;;;;;;;;;5.60;50.80;;;;;;2406420;56;20125;-72
2022/03/06 09:46:04;;;;;;;;;;;5.60;50.60;;;;;;2406752;56;20068;-72
2022/03/06 09:48:30;;;;;;;;;;;5.70;51.00;;;;;;2405352;56;20139;-71
2022/03/06 09:50:57;;;;;;;;;;;5.70;51.80;;;;;;2405999;56;20053;-72
2022/03/06 09:53:24;;;;;;;;;;;5.60;51.90;;;;;;2405141;56;20143;-71
2022/03/06 09:55:50;;;;;;;;;;;5.70;52.10;;;;;;2406643;56;20076;-71
2022/03/06 09:58:17;;;;;;;;;;;5.70;52.10;;;;;;2406701;56;20431;-72
2022/03/06 10:00:43;;;;;;;;;;;5.70;52.50;;;;;;2406408;56;20060;-74
2022/03/06 10:03:16;;;;;;;;;;;5.80;52.60;;;;;;2406478;56;20480;-72
2022/03/06 10:05:43;;;;;;;;;;;5.80;52.50;;;;;;2406244;56;20121;-72
2022/03/06 10:08:17;;;;;;;;;;;5.90;52.50;;;;;;2664840;52;20502;-71
2022/03/06 10:10:44;;;;;;;;;;;5.90;52.50;;;;;;2405482;56;20132;-72
2022/03/06 10:13:17;;;;;;;;;;;6.00;52.50;;;;;;2666765;52;20322;-74
2022/03/06 10:16:01;;;;;;;;;;;6.10;52.00;;;;;;2406742;56;20068;-74
2022/03/06 10:18:29;;;;;;;;;;;6.10;51.30;;;;;;2406207;56;20234;-75
2022/03/06 10:21:00;;;;;;;;;;;6.10;50.80;;;;;;2666025;52;20064;-75
2022/03/06 10:23:27;;;;;;;;;;;6.10;50.70;;;;;;2406349;56;20167;-75
2022/03/06 10:26:00;;;;;;;;;;;6.00;49.80;;;;;;2406390;56;20210;-75
2022/03/06 10:28:27;;;;;;;;;;;6.00;49.90;;;;;;2666304;52;20126;-76
2022/03/06 10:30:53;;;;;;;;;;;5.90;50.50;;;;;;2406124;56;20144;-75
2022/03/06 10:33:21;;;;;;;;;;;5.90;50.20;;;;;;2405852;56;20060;-74
2022/03/06 10:35:48;;;;;;;;;;;5.90;50.40;;;;;;2406331;56;20139;-75
2022/03/06 10:38:18;;;;;;;;;;;5.90;50.70;;;;;;2406565;56;20382;-75
2022/03/06 10:40:45;;;;;;;;;;;5.90;50.80;;;;;;2406307;56;20080;-73
2022/03/06 10:43:18;;;;;;;;;;;5.90;50.40;;;;;;2406551;56;20129;-74
2022/03/06 10:45:45;;;;;;;;;;;6.00;50.40;;;;;;2406538;56;20081;-75
2022/03/06 10:48:12;;;;;;;;;;;6.00;50.70;;;;;;2406642;56;20072;-76
2022/03/06 10:50:39;;;;;;;;;;;6.00;51.10;;;;;;2406373;56;20065;-77
2022/03/06 10:53:17;;;;;;;;;;;6.10;51.60;;;;;;2406486;56;20064;-76
2022/03/06 10:55:43;;;;;;;;;;;6.20;52.20;;;;;;2406942;56;20081;-76
2022/03/06 10:58:10;;;;;;;;;;;6.30;52.30;;;;;;2406631;56;20369;-74
2022/03/06 11:00:37;;;;;;;;;;;6.40;51.40;;;;;;2406212;56;20093;-74
2022/03/06 11:03:04;;;;;;;;;;;6.30;50.70;;;;;;2406230;56;20414;-74
2022/03/06 11:05:32;;;;;;;;;;;6.40;50.60;;;;;;2406539;56;20060;-74
2022/03/06 11:07:58;;;;;;;;;;;6.40;50.40;;;;;;2405807;56;20370;-74
2022/03/06 11:10:25;;;;;;;;;;;6.30;49.30;;;;;;2405405;56;20084;-73
2022/03/06 11:12:51;;;;;;;;;;;6.40;49.50;;;;;;2406900;56;20108;-74
2022/03/06 11:15:18;;;;;;;;;;;6.40;49.60;;;;;;2406446;56;20073;-75
2022/03/06 11:17:45;;;;;;;;;;;6.40;49.90;;;;;;2406824;56;20112;-74
2022/03/06 11:20:12;;;;;;;;;;;6.40;49.80;;;;;;2406359;56;20139;-74
2022/03/06 11:22:42;;;;;;;;;;;6.40;50.00;;;;;;2406404;56;20355;-73
2022/03/06 11:25:12;;;;;;;;;;;6.50;49.70;;;;;;2405024;56;20052;-73
2022/03/06 11:27:43;;;;;;;;;;;6.50;49.90;;;;;;2406125;56;20112;-73
2022/03/06 11:30:18;;;;;;;;;;;6.60;50.00;;;;;;2406586;56;20139;-73
2022/03/06 11:32:46;;;;;;;;;;;6.70;50.30;;;;;;2407104;56;20343;-74
2022/03/06 11:35:15;;;;;;;;;;;6.80;50.30;;;;;;2406533;56;20069;-75
2022/03/06 11:37:46;;;;;;;;;;;7.00;50.30;;;;;;2406526;56;20339;-73
2022/03/06 11:40:30;;;;;;;;;;;7.00;50.40;;;;;;2406573;56;20068;-73
2022/03/06 11:42:57;;;;;;;;;;;7.10;50.40;;;;;;2404853;56;20127;-73
2022/03/06 11:45:43;;;;;;;;;;;7.20;49.80;;;;;;2666282;52;20107;-74
2022/03/06 11:48:09;;;;;;;;;;;7.30;50.10;;;;;;2406502;56;20073;-74
2022/03/06 11:50:36;;;;;;;;;;;7.40;49.70;;;;;;2405441;56;20084;-74
2022/03/06 11:53:18;;;;;;;;;;;7.40;49.80;;;;;;2406583;56;20056;-74
2022/03/06 11:55:45;;;;;;;;;;;7.40;49.60;;;;;;2666610;52;20466;-74
2022/03/06 11:58:11;;;;;;;;;;;7.50;49.60;;;;;;2405938;56;20120;-72
2022/03/06 12:00:38;;;;;;;;;;;7.40;49.20;;;;;;2405771;56;20144;-73
2022/03/06 12:03:04;;;;;;;;;;;7.50;49.70;;;;;;2406025;56;20111;-73
2022/03/06 12:05:44;;;;;;;;;;;7.50;49.60;;;;;;2666509;52;20120;-72
2022/03/06 12:08:11;;;;;;;;;;;7.70;50.80;;;;;;2406171;56;20308;-73
2022/03/06 12:10:38;;;;;;;;;;;7.70;50.20;;;;;;2405301;56;20080;-77
2022/03/06 12:13:15;;;;;;;;;;;7.60;49.30;;;;;;2405888;56;20076;-74
2022/03/06 12:15:42;;;;;;;;;;;7.60;49.20;;;;;;2403256;56;20079;-74
2022/03/06 12:18:16;;;;;;;;;;;7.60;49.50;;;;;;2405762;56;20131;-74
2022/03/06 12:20:43;;;;;;;;;;;7.60;50.10;;;;;;2405507;56;20088;-74
2022/03/06 12:23:20;;;;;;;;;;;7.60;50.30;;;;;;2406006;56;20073;-73
2022/03/06 12:25:51;;;;;;;;;;;7.70;50.00;;;;;;2402461;56;20077;-73
2022/03/06 12:28:25;;;;;;;;;;;7.70;50.30;;;;;;2405939;56;20174;-73
2022/03/06 12:30:53;;;;;;;;;;;7.80;50.50;;;;;;2404668;56;20072;-74
2022/03/06 12:33:27;;;;;;;;;;;7.80;50.70;;;;;;2666634;52;20080;-74
2022/03/06 12:36:07;;;;;;;;;;;7.90;51.00;;;;;;2406293;56;20108;-72
2022/03/06 12:38:34;;;;;;;;;;;7.90;51.60;;;;;;2406140;56;20123;-74
2022/03/06 12:41:01;;;;;;;;;;;7.90;51.30;;;;;;2406505;56;20127;-74
2022/03/06 12:43:30;;;;;;;;;;;8.00;51.00;;;;;;2405922;56;20119;-73
2022/03/06 12:45:58;;;;;;;;;;;8.00;50.30;;;;;;2406154;56;20077;-75
2022/03/06 12:48:24;;;;;;;;;;;7.90;50.00;;;;;;2405417;56;20093;-74
2022/03/06 12:50:51;;;;;;;;;;;7.90;50.60;;;;;;2404810;56;20100;-73
2022/03/06 12:53:37;;;;;;;;;;;7.90;50.80;;;;;;2406086;56;20124;-74
2022/03/06 12:56:04;;;;;;;;;;;8.00;50.80;;;;;;2294867;58;20078;-73
2022/03/06 12:58:37;;;;;;;;;;;8.00;50.80;;;;;;2294925;58;20068;-75
2022/03/06 13:01:06;;;;;;;;;;;8.00;50.90;;;;;;2294039;58;20085;-75
2022/03/06 13:03:33;;;;;;;;;;;8.10;50.30;;;;;;2294116;58;20068;-75
2022/03/06 13:06:10;;;;;;;;;;;8.10;50.50;;;;;;2294620;58;20085;-75
2022/03/06 13:08:40;;;;;;;;;;;8.10;50.70;;;;;;2293265;58;20073;-74
2022/03/06 13:11:07;;;;;;;;;;;8.00;50.80;;;;;;2293505;58;20159;-74
2022/03/06 13:13:34;;;;;;;;;;;8.00;51.00;;;;;;2293109;58;20080;-74
2022/03/06 13:16:01;;;;;;;;;;;7.90;51.00;;;;;;2293141;58;20248;-73
2022/03/06 13:18:33;;;;;;;;;;;8.00;50.90;;;;;;2293774;58;20104;-75
2022/03/06 13:21:02;;;;;;;;;;;8.00;51.40;;;;;;2293466;58;20081;-76
2022/03/06 13:23:31;;;;;;;;;;;7.90;51.00;;;;;;2293532;58;20140;-76
2022/03/06 13:25:58;;;;;;;;;;;7.90;51.00;;;;;;2293640;58;20084;-76
2022/03/06 13:28:24;;;;;;;;;;;8.00;51.30;;;;;;2293938;58;20069;-76
2022/03/06 13:30:58;;;;;;;;;;;8.00;50.90;;;;;;2294089;58;20287;-74
2022/03/06 13:33:25;;;;;;;;;;;7.90;50.20;;;;;;2294132;58;20131;-73
2022/03/06 13:35:51;;;;;;;;;;;8.00;50.10;;;;;;2294769;58;20132;-74
2022/03/06 13:38:23;;;;;;;;;;;8.00;50.20;;;;;;2294409;58;20096;-73
2022/03/06 13:40:53;;;;;;;;;;;8.00;50.70;;;;;;2294945;58;20121;-73
2022/03/06 13:43:30;;;;;;;;;;;8.00;50.80;;;;;;2530391;55;20136;-74
2022/03/06 13:45:57;;;;;;;;;;;8.10;50.80;;;;;;2530541;55;20108;-74
2022/03/06 13:48:25;;;;;;;;;;;8.10;50.60;;;;;;2294276;58;20088;-74
2022/03/06 13:50:51;;;;;;;;;;;8.10;50.30;;;;;;2293606;58;20080;-74
2022/03/06 13:53:18;;;;;;;;;;;8.20;50.70;;;;;;2293935;58;20073;-76
2022/03/06 13:55:48;;;;;;;;;;;8.20;50.80;;;;;;2293899;58;20085;-75
2022/03/06 13:58:16;;;;;;;;;;;8.20;50.90;;;;;;2295345;58;20148;-74
2022/03/06 14:00:43;;;;;;;;;;;8.20;50.90;;;;;;2296862;58;20060;-78
2022/03/06 14:03:10;;;;;;;;;;;8.20;50.90;;;;;;2530270;54;20072;-75
2022/03/06 14:05:37;;;;;;;;;;;8.20;50.80;;;;;;2294058;58;20089;-75
2022/03/06 14:08:14;;;;;;;;;;;8.10;50.80;;;;;;2294211;58;20133;-75
2022/03/06 14:10:41;;;;;;;;;;;8.10;50.90;;;;;;2293415;58;20133;-75
2022/03/06 14:13:25;;;;;;;;;;;8.10;51.10;;;;;;2294399;58;20092;-75
2022/03/06 14:15:52;;;;;;;;;;;8.10;50.90;;;;;;2294324;58;20072;-73
2022/03/06 14:18:31;;;;;;;;;;;8.20;51.10;;;;;;2293583;58;20096;-76
2022/03/06 14:20:58;;;;;;;;;;;8.20;51.00;;;;;;2529396;54;20209;-76
2022/03/06 14:23:24;;;;;;;;;;;8.20;51.20;;;;;;2294267;58;20072;-76
2022/03/06 14:25:51;;;;;;;;;;;8.20;51.00;;;;;;2294049;58;20081;-75
2022/03/06 14:28:18;;;;;;;;;;;8.20;51.10;;;;;;2295324;58;20072;-76
2022/03/06 14:30:45;;;;;;;;;;;8.10;51.30;;;;;;2294136;58;20104;-76
2022/03/06 14:33:11;;;;;;;;;;;8.10;51.40;;;;;;2294672;58;20091;-75
2022/03/06 14:35:38;;;;;;;;;;;8.20;51.60;;;;;;2294804;58;20068;-76
2022/03/06 14:38:04;;;;;;;;;;;8.20;51.90;;;;;;2294431;58;20080;-78
2022/03/06 14:40:31;;;;;;;;;;;8.30;51.70;;;;;;2293837;58;20163;-74
2022/03/06 14:42:58;;;;;;;;;;;8.40;51.70;;;;;;2295306;58;20080;-75